Time;durP1;ratioP1;P1;durP2;ratioP2;P2;SDS_P1;SDS_P2;PMS_P1;PMS_P2;Temp;Humidity;BMP_temperature;BMP_pressure;BME280_temperature;BME280_humidity;BME280_pressure;Samples;Min_cycle;Max_cycle;Signal;HPM_P1;HPM_P2
2023/12/05 00:01:32;;;;;;;0.70;0.50;;;;;;;6.98;96.33;147920.34;5024547;28;20219;-57
2023/12/05 00:03:59;;;;;;;0.97;0.50;;;;;;;7.11;95.24;147951.41;5021447;28;20228;-57
2023/12/05 00:06:25;;;;;;;0.40;0.40;;;;;;;7.04;96.57;147935.28;5025099;28;20215;-54
2023/12/05 00:08:52;;;;;;;1.80;0.70;;;;;;;7.14;95.54;147958.84;5020818;28;20228;-55
2023/12/05 00:11:18;;;;;;;0.70;0.50;;;;;;;7.18;94.46;147970.06;5022566;28;20235;-58
2023/12/05 00:13:45;;;;;;;0.70;0.40;;;;;;;7.07;95.79;147943.94;5021679;28;20699;-57
2023/12/05 00:16:13;;;;;;;1.20;0.50;;;;;;;7.13;94.95;147957.63;5021344;28;20224;-57
2023/12/05 00:18:43;;;;;;;0.57;0.40;;;;;;;7.14;94.90;147958.84;5019491;28;20219;-58
2023/12/05 00:21:09;;;;;;;0.33;0.30;;;;;;;7.11;94.06;147952.66;5022260;28;20236;-58
2023/12/05 00:23:36;;;;;;;1.13;0.50;;;;;;;7.09;94.96;147948.91;5019331;28;20710;-57
2023/12/05 00:26:02;;;;;;;0.70;0.40;;;;;;;7.09;95.56;147947.69;5022971;28;20236;-57
2023/12/05 00:28:29;;;;;;;1.27;0.70;;;;;;;7.09;95.64;147948.91;5023846;28;20232;-59
2023/12/05 00:30:56;;;;;;;0.47;0.30;;;;;;;7.00;96.37;147925.31;5020450;28;20848;-58
2023/12/05 00:33:24;;;;;;;2.47;0.37;;;;;;;7.02;95.30;147930.28;5023878;28;20573;-58
2023/12/05 00:35:50;;;;;;;0.77;0.50;;;;;;;7.07;94.63;147942.72;5020681;28;20234;-58
2023/12/05 00:38:17;;;;;;;0.80;0.40;;;;;;;6.98;95.42;147921.56;5023767;28;20714;-58
2023/12/05 00:40:43;;;;;;;0.60;0.50;;;;;;;7.00;95.49;147926.53;5021407;28;20324;-58
2023/12/05 00:43:11;;;;;;;1.30;0.43;;;;;;;7.06;95.15;147940.25;5022887;28;20580;-58
2023/12/05 00:45:37;;;;;;;0.50;0.30;;;;;;;7.09;94.56;147947.69;5012495;28;20215;-59
2023/12/05 00:48:04;;;;;;;1.23;0.40;;;;;;;7.11;94.04;147952.66;5022903;28;20223;-58
2023/12/05 00:50:32;;;;;;;0.60;0.40;;;;;;;7.26;93.14;147987.47;5024231;28;20220;-58
2023/12/05 00:52:59;;;;;;;0.60;0.40;;;;;;;7.11;94.10;147951.41;5020549;28;20236;-57
2023/12/05 00:55:28;;;;;;;2.13;0.40;;;;;;;7.06;94.04;147940.25;5024012;28;20229;-58
2023/12/05 00:57:55;;;;;;;0.30;0.30;;;;;;;7.05;94.80;147937.75;5021062;28;20232;-57
2023/12/05 01:00:21;;;;;;;0.40;0.30;;;;;;;7.14;93.68;147958.84;5024426;28;20243;-59
2023/12/05 01:02:48;;;;;;;1.13;0.83;;;;;;;7.09;94.71;147948.91;5020538;28;20226;-58
2023/12/05 01:05:15;;;;;;;1.30;0.30;;;;;;;7.13;92.82;147956.38;5010162;28;20262;-58
2023/12/05 01:07:43;;;;;;;0.70;0.40;;;;;;;7.14;93.76;147960.13;5019339;28;20766;-58
2023/12/05 01:10:10;;;;;;;0.73;0.40;;;;;;;7.15;92.86;147962.59;5023763;28;20235;-58
2023/12/05 01:12:36;;;;;;;0.30;0.23;;;;;;;7.13;93.78;147957.63;5020613;28;20232;-58
2023/12/05 01:15:04;;;;;;;1.00;0.40;;;;;;;7.13;93.26;147956.38;5022611;28;20236;-58
2023/12/05 01:17:31;;;;;;;2.10;0.50;;;;;;;7.14;92.95;147958.84;5024041;28;20231;-58
2023/12/05 01:19:57;;;;;;;1.80;0.50;;;;;;;7.11;92.89;147951.41;5021756;28;20239;-59
2023/12/05 01:22:24;;;;;;;1.27;0.60;;;;;;;7.23;91.58;147981.22;5023356;28;20231;-59
2023/12/05 01:24:55;;;;;;;0.60;0.30;;;;;;;7.17;92.45;147967.56;5020451;28;20234;-57
2023/12/05 01:27:22;;;;;;;1.50;0.50;;;;;;;7.15;93.96;147962.59;5023054;28;20219;-58
2023/12/05 01:29:48;;;;;;;1.67;0.70;;;;;;;7.13;92.99;147956.38;5020077;28;20227;-58
2023/12/05 01:32:15;;;;;;;1.23;0.50;;;;;;;7.08;93.51;147946.44;5022821;28;20727;-58
2023/12/05 01:34:42;;;;;;;1.33;0.50;;;;;;;7.09;93.39;147948.91;5021484;28;20231;-58
2023/12/05 01:37:08;;;;;;;6.37;0.60;;;;;;;7.21;92.82;147977.53;5024492;28;20699;-58
2023/12/05 01:39:35;;;;;;;0.80;0.47;;;;;;;7.24;92.43;147983.72;5006727;28;20600;-59
2023/12/05 01:42:03;;;;;;;1.20;0.50;;;;;;;7.31;91.06;147999.88;5027239;28;20228;-58
2023/12/05 01:44:30;;;;;;;0.93;0.50;;;;;;;7.27;91.02;147989.94;5027119;28;20234;-58
2023/12/05 01:46:56;;;;;;;1.17;0.50;;;;;;;7.21;92.57;147976.25;5024152;28;20235;-59
2023/12/05 01:49:23;;;;;;;0.70;0.40;;;;;;;7.21;92.12;147976.25;5026292;28;20228;-58
2023/12/05 01:51:52;;;;;;;0.77;0.40;;;;;;;7.24;91.28;147983.72;5023392;28;20227;-58
2023/12/05 01:54:18;;;;;;;1.03;0.50;;;;;;;7.22;92.22;147978.75;5027064;28;20231;-58
2023/12/05 01:56:45;;;;;;;1.10;0.40;;;;;;;7.35;90.54;148009.81;5024684;28;20575;-58
2023/12/05 01:59:15;;;;;;;2.07;0.40;;;;;;;7.45;88.79;148033.41;5026253;28;20235;-58
2023/12/05 02:01:42;;;;;;;0.97;0.43;;;;;;;7.38;89.56;148018.50;5023196;28;20236;-58
2023/12/05 02:04:08;;;;;;;1.33;0.40;;;;;;;7.35;89.96;148009.81;5026124;28;20228;-58
2023/12/05 02:06:35;;;;;;;1.70;0.40;;;;;;;7.30;89.37;147997.41;5022491;28;20702;-58
2023/12/05 02:09:03;;;;;;;0.87;0.50;;;;;;;7.22;90.93;147980.00;5026004;28;20235;-58
2023/12/05 02:11:29;;;;;;;1.23;0.40;;;;;;;7.17;89.93;147966.31;5026987;28;20224;-58
2023/12/05 02:13:56;;;;;;;2.10;0.57;;;;;;;7.30;90.02;147997.41;5022932;28;20308;-59
2023/12/05 02:16:31;;;;;;;0.63;0.60;;;;;;;7.32;89.51;148002.38;5026372;28;20228;-58
2023/12/05 02:19:08;;;;;;;1.67;0.47;;;;;;;7.31;90.57;147999.88;5023863;28;20239;-58
2023/12/05 02:21:37;;;;;;;2.30;0.63;;;;;;;7.27;90.53;147991.16;5023892;28;20233;-58
2023/12/05 02:24:25;;;;;;;1.97;0.50;;;;;;;7.21;90.46;147977.53;5026143;28;20290;-58
2023/12/05 02:26:58;;;;;;;1.27;0.50;;;;;;;7.14;91.91;147958.84;5023453;28;20238;-58
2023/12/05 02:29:26;;;;;;;2.30;0.50;;;;;;;7.19;90.15;147971.28;5026490;28;20310;-59
2023/12/05 02:31:55;;;;;;;1.87;0.60;;;;;;;7.12;91.57;147955.16;5022257;28;20239;-59
2023/12/05 02:34:22;;;;;;;1.87;0.40;;;;;;;7.03;91.66;147932.78;5026561;28;20238;-58
2023/12/05 02:36:58;;;;;;;2.00;0.53;;;;;;;6.87;92.48;147895.50;5015688;28;20549;-58
2023/12/05 02:39:30;;;;;;;2.97;0.37;;;;;;;6.88;91.97;147898.00;5026991;28;20231;-58
2023/12/05 02:41:59;;;;;;;2.00;0.57;;;;;;;6.78;92.13;147874.41;5023726;28;20240;-58
2023/12/05 02:44:37;;;;;;;0.70;0.30;;;;;;;6.70;92.13;147853.25;5025862;28;20219;-58
2023/12/05 02:47:07;;;;;;;1.30;0.40;;;;;;;6.71;91.55;147857.03;5021600;28;20583;-58
2023/12/05 02:49:33;;;;;;;2.63;0.53;;;;;;;6.72;92.35;147858.22;5021994;28;20239;-58
2023/12/05 02:52:00;;;;;;;0.93;0.40;;;;;;;6.76;91.72;147868.16;5025821;28;20235;-58
2023/12/05 02:54:26;;;;;;;1.80;0.40;;;;;;;6.89;89.66;147900.47;5025251;28;20718;-58
2023/12/05 02:56:53;;;;;;;1.13;0.30;;;;;;;6.88;90.31;147896.78;5022323;28;20236;-58
2023/12/05 02:59:20;;;;;;;1.87;0.40;;;;;;;6.87;89.84;147894.28;5025881;28;20224;-59
2023/12/05 03:01:48;;;;;;;1.97;0.33;;;;;;;6.84;90.77;147888.06;5021229;28;20319;-59
2023/12/05 03:04:14;;;;;;;1.40;0.30;;;;;;;6.90;89.28;147902.97;5025313;28;20714;-58
2023/12/05 03:06:41;;;;;;;0.73;0.30;;;;;;;6.93;88.39;147909.16;5023501;28;20223;-58
2023/12/05 03:09:08;;;;;;;2.73;0.40;;;;;;;6.87;89.66;147895.50;5017721;28;20232;-58
2023/12/05 03:11:35;;;;;;;0.87;0.40;;;;;;;6.96;88.17;147915.38;5022629;28;20220;-59
2023/12/05 03:14:03;;;;;;;1.10;0.30;;;;;;;6.92;88.04;147907.94;5024886;28;20234;-58
2023/12/05 03:16:29;;;;;;;1.67;0.40;;;;;;;7.05;86.15;147937.75;5025679;28;20703;-57
2023/12/05 03:18:57;;;;;;;3.50;0.50;;;;;;;7.03;86.46;147932.78;5023388;28;20282;-58
2023/12/05 03:21:24;;;;;;;1.07;0.33;;;;;;;7.06;86.04;147940.25;5026112;28;20238;-58
2023/12/05 03:23:50;;;;;;;1.13;0.30;;;;;;;7.11;86.31;147951.41;5022191;28;20271;-57
2023/12/05 03:26:19;;;;;;;2.07;0.40;;;;;;;7.12;86.62;147953.88;5024741;28;20219;-59
2023/12/05 03:28:45;;;;;;;1.20;0.30;;;;;;;7.09;86.09;147947.69;5020512;28;20326;-58
2023/12/05 03:31:12;;;;;;;2.67;0.60;;;;;;;7.11;85.97;147952.66;5024153;28;20236;-58
2023/12/05 03:33:39;;;;;;;1.13;0.50;;;;;;;7.06;87.46;147940.25;5022057;28;20251;-58
2023/12/05 03:36:08;;;;;;;2.00;0.20;;;;;;;7.02;87.52;147931.50;5024943;28;20230;-58
2023/12/05 03:38:34;;;;;;;2.37;0.50;;;;;;;7.08;87.62;147945.22;5021293;28;20991;-58
2023/12/05 03:41:01;;;;;;;1.07;0.30;;;;;;;7.10;87.43;147950.19;5024812;28;20235;-58
2023/12/05 03:43:28;;;;;;;0.70;0.33;;;;;;;7.06;88.33;147941.47;5025034;28;20234;-57
2023/12/05 03:45:54;;;;;;;1.73;0.33;;;;;;;6.98;88.84;147921.56;5022580;28;20227;-58
2023/12/05 03:48:21;;;;;;;1.77;0.60;;;;;;;6.89;89.80;147900.47;5023614;28;20567;-58
2023/12/05 03:50:47;;;;;;;3.53;0.50;;;;;;;6.94;88.70;147912.91;5022594;28;20240;-59
2023/12/05 03:53:15;;;;;;;1.70;0.50;;;;;;;6.93;89.03;147909.16;5023946;28;20219;-58
2023/12/05 03:55:42;;;;;;;1.90;0.40;;;;;;;7.01;88.00;147929.03;5021855;28;20227;-58
2023/12/05 03:58:09;;;;;;;1.67;0.50;;;;;;;6.97;87.92;147917.88;5024800;28;20692;-58
2023/12/05 04:00:35;;;;;;;2.77;0.50;;;;;;;6.95;87.84;147914.13;5022724;28;20243;-58
2023/12/05 04:03:02;;;;;;;0.97;0.50;;;;;;;6.84;89.85;147886.84;5023129;28;20712;-58
2023/12/05 04:05:29;;;;;;;1.67;0.60;;;;;;;6.81;89.61;147880.59;5024996;28;20738;-59
2023/12/05 04:07:55;;;;;;;2.03;0.50;;;;;;;6.79;89.55;147875.63;5020487;28;20280;-58
2023/12/05 04:10:23;;;;;;;5.13;0.70;;;;;;;6.85;88.98;147889.31;5023814;28;20219;-58
2023/12/05 04:12:50;;;;;;;1.60;0.50;;;;;;;6.91;87.67;147904.19;5021034;28;20326;-58
2023/12/05 04:15:16;;;;;;;1.57;0.70;;;;;;;6.91;87.26;147905.44;5024011;28;20258;-58
2023/12/05 04:17:43;;;;;;;1.90;0.50;;;;;;;7.00;86.85;147926.53;5022292;28;20239;-58
2023/12/05 04:20:11;;;;;;;2.40;0.40;;;;;;;7.05;85.21;147938.97;5014806;28;20232;-56
2023/12/05 04:22:38;;;;;;;3.43;0.80;;;;;;;7.05;85.47;147938.97;5022116;28;20275;-58
2023/12/05 04:25:05;;;;;;;3.27;0.57;;;;;;;7.00;84.94;147925.31;5022324;28;20227;-58
2023/12/05 04:27:33;;;;;;;1.97;0.50;;;;;;;7.05;85.48;147938.97;5023956;28;20231;-58
2023/12/05 04:30:00;;;;;;;3.17;0.60;;;;;;;6.99;85.12;147922.84;5020910;28;20232;-58
2023/12/05 04:32:27;;;;;;;2.07;0.70;;;;;;;6.96;84.57;147916.59;5279371;22;20775;-59
2023/12/05 04:34:53;;;;;;;1.60;0.60;;;;;;;6.98;84.90;147920.34;4982929;28;20306;-58
2023/12/05 04:37:20;;;;;;;6.07;0.60;;;;;;;6.93;85.20;147909.16;4986889;28;20229;-57
2023/12/05 04:39:46;;;;;;;2.53;0.60;;;;;;;6.97;84.47;147917.88;4984531;28;20225;-55
2023/12/05 04:42:13;;;;;;;2.93;0.70;;;;;;;6.97;84.85;147917.88;4985483;28;20240;-58
2023/12/05 04:44:41;;;;;;;1.37;0.47;;;;;;;7.01;85.32;147929.03;4985832;28;20434;-59
2023/12/05 04:47:08;;;;;;;5.23;0.63;;;;;;;6.94;85.32;147912.91;4987041;28;20720;-58
2023/12/05 04:49:34;;;;;;;2.23;0.47;;;;;;;6.91;85.56;147905.44;4982381;28;20569;-58
2023/12/05 04:52:01;;;;;;;2.47;0.60;;;;;;;6.89;86.09;147900.47;4985537;28;20225;-59
2023/12/05 04:54:27;;;;;;;1.73;0.50;;;;;;;6.92;85.35;147906.66;4985345;28;20592;-59
2023/12/05 04:56:54;;;;;;;3.00;0.57;;;;;;;6.86;87.36;147893.03;4981735;28;20241;-58
2023/12/05 04:59:21;;;;;;;2.10;0.40;;;;;;;6.81;86.65;147879.38;4985276;28;20225;-59
2023/12/05 05:01:50;;;;;;;3.30;0.60;;;;;;;6.76;88.28;147868.16;4984417;28;20235;-59
2023/12/05 05:04:17;;;;;;;3.03;0.77;;;;;;;6.77;88.42;147870.66;4986296;28;20247;-58
2023/12/05 05:06:43;;;;;;;2.50;0.60;;;;;;;6.77;88.15;147870.66;4983707;28;20327;-59
2023/12/05 05:09:10;;;;;;;2.70;0.50;;;;;;;6.74;87.23;147863.19;4986582;28;20227;-59
2023/12/05 05:11:36;;;;;;;1.50;0.70;;;;;;;6.75;87.70;147865.69;4986771;28;20225;-59
2023/12/05 05:14:03;;;;;;;2.37;0.37;;;;;;;6.63;88.23;147837.13;4989986;28;20803;-59
2023/12/05 05:16:30;;;;;;;1.33;0.43;;;;;;;6.63;88.36;147838.34;4989371;28;20241;-59
2023/12/05 05:18:59;;;;;;;2.77;0.67;;;;;;;6.64;86.64;147839.63;4986119;28;20699;-59
2023/12/05 05:21:25;;;;;;;1.80;0.50;;;;;;;6.60;87.81;147830.91;4989698;28;20231;-58
2023/12/05 05:23:52;;;;;;;1.50;0.60;;;;;;;6.66;86.86;147844.59;4986764;28;20217;-58
2023/12/05 05:26:19;;;;;;;4.23;0.50;;;;;;;6.69;87.23;147852.03;4988485;28;20623;-59
2023/12/05 05:28:45;;;;;;;3.20;0.93;;;;;;;6.71;85.58;147857.03;4986535;28;20239;-59
2023/12/05 05:31:12;;;;;;;4.40;1.33;;;;;;;6.69;85.81;147850.78;4987967;28;20244;-59
2023/12/05 05:33:38;;;;;;;2.27;0.70;;;;;;;6.64;87.44;147839.63;4985814;28;20220;-59
2023/12/05 05:36:07;;;;;;;5.60;0.53;;;;;;;6.61;86.23;147832.16;4988642;28;20624;-59
2023/12/05 05:38:34;;;;;;;4.73;1.00;;;;;;;6.58;86.15;147824.72;4985018;28;20236;-59
2023/12/05 05:41:05;;;;;;;1.90;0.50;;;;;;;6.59;86.14;147827.19;4987646;28;20762;-58
2023/12/05 05:43:31;;;;;;;5.63;3.00;;;;;;;6.61;85.64;147833.38;4988996;28;20604;-59
2023/12/05 05:45:58;;;;;;;44.57;20.47;;;;;;;6.64;85.59;147839.63;4987572;28;20271;-59
2023/12/05 05:48:25;;;;;;;7.37;3.10;;;;;;;6.57;85.80;147823.47;4989098;28;20221;-59
2023/12/05 05:50:51;;;;;;;9.03;7.67;;;;;;;6.53;86.39;147812.28;4985516;28;20219;-58
2023/12/05 05:53:19;;;;;;;5.93;3.80;;;;;;;6.43;86.46;147789.94;4988735;28;20229;-58
2023/12/05 05:55:46;;;;;;;2.80;1.37;;;;;;;6.49;85.77;147804.84;4986192;28;20213;-59
2023/12/05 05:58:12;;;;;;;5.80;1.67;;;;;;;6.52;85.68;147809.81;4990308;28;20618;-58
2023/12/05 06:00:39;;;;;;;4.30;2.40;;;;;;;6.53;85.07;147813.50;4988802;28;20236;-58
2023/12/05 06:03:06;;;;;;;1.33;1.07;;;;;;;6.52;84.40;147811.03;4989083;28;21055;-58
2023/12/05 06:05:32;;;;;;;7.20;3.53;;;;;;;6.52;84.91;147811.03;4973787;28;20225;-58
2023/12/05 06:07:59;;;;;;;2.57;0.90;;;;;;;6.58;84.35;147824.72;4985740;28;20244;-55
2023/12/05 06:10:29;;;;;;;2.87;0.80;;;;;;;6.66;83.93;147844.59;4990144;28;20878;-58
2023/12/05 06:12:56;;;;;;;3.33;2.03;;;;;;;6.63;83.97;147838.34;4985878;28;20243;-58
2023/12/05 06:15:22;;;;;;;11.47;3.77;;;;;;;6.58;84.13;147824.72;4990085;28;20225;-59
2023/12/05 06:17:49;;;;;;;3.07;0.77;;;;;;;6.56;84.55;147820.97;4988421;28;20607;-58
2023/12/05 06:20:15;;;;;;;2.40;1.60;;;;;;;6.55;84.44;147818.47;4988064;28;20221;-58
2023/12/05 06:22:42;;;;;;;1.73;0.63;;;;;;;6.54;84.26;147814.78;4985032;28;20225;-58
2023/12/05 06:25:09;;;;;;;3.13;1.23;;;;;;;6.56;84.10;147819.75;4987439;28;20234;-58
2023/12/05 06:27:37;;;;;;;3.67;1.40;;;;;;;6.53;84.32;147813.50;4985758;28;20924;-57
2023/12/05 06:30:04;;;;;;;2.60;1.00;;;;;;;6.50;85.35;147806.06;4988245;28;20252;-56
2023/12/05 06:32:30;;;;;;;3.37;1.00;;;;;;;6.56;83.40;147819.75;4974432;28;20229;-58
2023/12/05 06:34:57;;;;;;;4.33;2.10;;;;;;;6.56;83.58;147820.97;4988674;28;20232;-58
2023/12/05 06:37:23;;;;;;;1.80;1.10;;;;;;;6.59;83.06;147827.19;4990390;28;20236;-58
2023/12/05 06:39:50;;;;;;;4.97;1.33;;;;;;;6.60;82.79;147829.69;4984807;28;20723;-58
2023/12/05 06:42:17;;;;;;;2.10;1.27;;;;;;;6.55;83.77;147818.47;4988352;28;20221;-59
2023/12/05 06:44:45;;;;;;;5.13;2.07;;;;;;;6.53;83.39;147812.28;4984893;28;20229;-58
2023/12/05 06:47:12;;;;;;;2.87;1.23;;;;;;;6.52;83.03;147811.03;4978951;28;20632;-59
2023/12/05 06:49:38;;;;;;;3.37;0.97;;;;;;;6.54;82.25;147816.00;4985316;28;20229;-58
2023/12/05 06:52:08;;;;;;;2.10;1.07;;;;;;;6.54;82.73;147816.00;4987213;28;20729;-59
2023/12/05 06:54:35;;;;;;;6.47;1.27;;;;;;;6.50;82.85;147807.31;4986260;28;20229;-59
2023/12/05 06:57:02;;;;;;;1.63;0.73;;;;;;;6.55;82.53;147817.25;4985591;28;20667;-58
2023/12/05 06:59:28;;;;;;;4.57;1.60;;;;;;;6.55;81.21;147817.25;4987749;28;20596;-57
2023/12/05 07:01:56;;;;;;;3.85;0.70;;;;;;;6.54;82.75;147816.00;4985749;28;20426;-55
2023/12/05 07:04:23;;;;;;;4.37;2.27;;;;;;;6.51;82.30;147808.53;4987882;28;20252;-58
2023/12/05 07:06:50;;;;;;;4.33;1.30;;;;;;;6.59;80.88;147828.41;4984870;28;20209;-57
2023/12/05 07:09:17;;;;;;;2.87;0.60;;;;;;;6.58;81.10;147825.94;4987472;28;20264;-56
2023/12/05 07:11:44;;;;;;;7.33;2.90;;;;;;;6.54;81.70;147814.78;4983141;28;20615;-55
2023/12/05 07:14:13;;;;;;;2.13;0.87;;;;;;;6.54;81.37;147814.78;4987306;28;20225;-56
2023/12/05 07:16:39;;;;;;;2.70;0.80;;;;;;;6.52;81.54;147809.81;4985082;28;20256;-58
2023/12/05 07:19:07;;;;;;;2.70;1.43;;;;;;;6.56;80.49;147820.97;4987784;28;20293;-59
2023/12/05 07:21:34;;;;;;;2.77;0.80;;;;;;;6.52;82.32;147811.03;4989155;28;20294;-56
2023/12/05 07:24:00;;;;;;;3.90;0.93;;;;;;;6.48;82.75;147802.38;4984334;28;20335;-57
2023/12/05 07:26:27;;;;;;;0.90;0.53;;;;;;;6.48;82.79;147801.09;4984680;28;20240;-57
2023/12/05 07:28:53;;;;;;;2.70;0.80;;;;;;;6.45;82.88;147794.91;4984753;28;20225;-58
2023/12/05 07:31:21;;;;;;;1.00;0.90;;;;;;;6.46;83.19;147796.13;4987634;28;20699;-57
2023/12/05 07:33:48;;;;;;;3.00;0.70;;;;;;;6.45;84.13;147793.63;4983582;28;20213;-56
2023/12/05 07:36:16;;;;;;;5.70;1.10;;;;;;;6.44;83.85;147791.16;4986356;28;20240;-57
2023/12/05 07:38:42;;;;;;;3.27;1.10;;;;;;;6.48;83.80;147801.09;4985720;28;20244;-56
2023/12/05 07:41:18;;;;;;;2.37;1.03;;;;;;;6.47;83.34;147798.59;4986880;28;20252;-57
2023/12/05 07:43:44;;;;;;;2.10;0.60;;;;;;;6.40;84.69;147781.22;4984179;28;20569;-57
2023/12/05 07:46:11;;;;;;;5.40;1.40;;;;;;;6.46;83.02;147796.13;4979018;28;20266;-58
2023/12/05 07:48:37;;;;;;;2.07;1.10;;;;;;;6.50;83.86;147806.06;4984052;28;20217;-58
2023/12/05 07:51:05;;;;;;;4.93;1.00;;;;;;;6.49;83.02;147804.84;4986839;28;20270;-55
2023/12/05 07:53:33;;;;;;;6.83;1.30;;;;;;;6.46;83.50;147796.13;4983899;28;20230;-55
2023/12/05 07:55:59;;;;;;;4.93;4.23;;;;;;;6.43;84.18;147789.94;4982338;28;20236;-58
2023/12/05 07:58:26;;;;;;;5.97;4.73;;;;;;;6.48;83.62;147801.09;4987667;28;20221;-57
2023/12/05 08:00:53;;;;;;;4.10;1.33;;;;;;;6.46;83.29;147796.13;4985083;28;20213;-57
2023/12/05 08:03:19;;;;;;;3.90;1.20;;;;;;;6.49;83.44;147803.56;4985871;28;20232;-56
2023/12/05 08:05:46;;;;;;;3.23;0.87;;;;;;;6.47;84.17;147798.59;4985050;28;20228;-57
2023/12/05 08:08:13;;;;;;;2.17;0.60;;;;;;;6.50;83.19;147807.31;4986730;28;20584;-58
2023/12/05 08:10:40;;;;;;;4.90;1.77;;;;;;;6.58;81.91;147824.72;4982874;28;20217;-57
2023/12/05 08:13:07;;;;;;;6.63;3.10;;;;;;;6.50;83.61;147807.31;4986217;28;20225;-57
2023/12/05 08:15:34;;;;;;;2.30;0.80;;;;;;;6.54;83.11;147816.00;4986133;28;20260;-57
2023/12/05 08:18:00;;;;;;;4.63;1.30;;;;;;;6.55;83.30;147817.25;4984117;28;20229;-57
2023/12/05 08:20:29;;;;;;;1.43;0.63;;;;;;;6.57;82.44;147823.47;4986625;28;20217;-58
2023/12/05 08:22:56;;;;;;;2.13;1.17;;;;;;;6.57;83.21;147823.47;4982377;28;20655;-57
2023/12/05 08:25:22;;;;;;;4.80;2.03;;;;;;;6.56;83.15;147820.97;4986598;28;20228;-58
2023/12/05 08:27:50;;;;;;;4.90;2.03;;;;;;;6.54;84.22;147814.78;4983032;28;20229;-58
2023/12/05 08:30:17;;;;;;;4.30;1.90;;;;;;;6.59;83.75;147827.19;4986865;28;20233;-56
2023/12/05 08:32:43;;;;;;;3.07;0.80;;;;;;;6.58;83.18;147825.94;4983394;28;20236;-56
2023/12/05 08:35:10;;;;;;;10.83;7.00;;;;;;;6.54;83.83;147816.00;4986802;28;20232;-58
2023/12/05 08:37:37;;;;;;;3.67;2.00;;;;;;;6.57;83.57;147823.47;4983402;28;20236;-56
2023/12/05 08:40:04;;;;;;;3.70;1.80;;;;;;;6.55;83.97;147817.25;4985722;28;20229;-58
2023/12/05 08:42:31;;;;;;;3.03;1.40;;;;;;;6.56;84.02;147819.75;4986523;28;20229;-58
2023/12/05 08:44:59;;;;;;;4.40;1.37;;;;;;;6.50;83.75;147806.06;4982727;28;20214;-57
2023/12/05 08:47:25;;;;;;;2.57;1.90;;;;;;;6.53;84.00;147812.28;4986486;28;20228;-58
2023/12/05 08:49:52;;;;;;;2.23;2.00;;;;;;;6.51;84.32;147808.53;4982492;28;20628;-58
2023/12/05 08:52:20;;;;;;;3.87;1.10;;;;;;;6.60;83.43;147829.69;4978087;28;20221;-60
2023/12/05 08:54:46;;;;;;;1.50;0.70;;;;;;;6.71;82.95;147857.03;4982901;28;20232;-59
2023/12/05 08:57:13;;;;;;;2.60;0.67;;;;;;;6.71;82.34;147855.75;4985855;28;20237;-58
2023/12/05 08:59:40;;;;;;;2.97;0.60;;;;;;;6.82;81.20;147883.09;4983426;28;20225;-59
2023/12/05 09:02:08;;;;;;;4.20;0.63;;;;;;;6.92;80.69;147906.66;4984008;28;20236;-61
2023/12/05 09:04:37;;;;;;;2.50;0.60;;;;;;;7.00;80.74;147925.31;4984862;28;20217;-60
2023/12/05 09:07:04;;;;;;;1.93;0.70;;;;;;;7.00;80.66;147926.53;4982955;28;20260;-60
2023/12/05 09:09:30;;;;;;;3.23;0.50;;;;;;;6.98;80.25;147920.34;4983728;28;20216;-61
2023/12/05 09:11:59;;;;;;;2.17;0.63;;;;;;;6.99;78.68;147924.06;4981635;28;20248;-60
2023/12/05 09:14:26;;;;;;;0.67;0.40;;;;;;;7.39;78.60;148019.78;4983598;28;20227;-60
2023/12/05 09:16:52;;;;;;;1.80;0.40;;;;;;;7.39;77.49;148019.78;4980083;28;20756;-60
2023/12/05 09:19:20;;;;;;;2.83;0.80;;;;;;;7.51;76.88;148048.34;4984023;28;20225;-60
2023/12/05 09:21:47;;;;;;;5.30;1.97;;;;;;;7.47;77.29;148039.63;4982437;28;20228;-59
2023/12/05 09:24:13;;;;;;;17.37;7.43;;;;;;;7.60;76.46;148070.72;4983810;28;20233;-59
2023/12/05 09:26:40;;;;;;;3.50;0.57;;;;;;;7.32;77.17;148003.59;4981945;28;20213;-60
2023/12/05 09:29:07;;;;;;;10.10;3.43;;;;;;;7.58;76.63;148064.47;4976577;28;20240;-60
2023/12/05 09:31:34;;;;;;;8.60;2.80;;;;;;;7.81;76.11;148121.66;4984267;28;20218;-59
2023/12/05 09:33:59;;;;;;;2.93;1.00;;;;;;;7.74;76.36;148104.25;4982431;28;20231;-59
2023/12/05 09:36:27;;;;;;;3.13;1.17;;;;;;;7.65;77.46;148083.16;4985847;28;20565;-60
2023/12/05 09:38:54;;;;;;;4.27;1.20;;;;;;;7.60;77.56;148069.44;4983150;28;20224;-60
2023/12/05 09:41:21;;;;;;;11.40;4.60;;;;;;;7.60;76.69;148070.72;4983458;28;20226;-60
2023/12/05 09:43:50;;;;;;;25.93;9.63;;;;;;;7.28;78.05;147993.66;4982251;28;20230;-59
2023/12/05 09:46:21;;;;;;;3.67;0.87;;;;;;;7.27;79.76;147989.94;4985065;28;20822;-59
2023/12/05 09:48:49;;;;;;;12.10;4.90;;;;;;;7.43;79.05;148028.44;4981889;28;20236;-58
2023/12/05 09:51:16;;;;;;;14.20;5.97;;;;;;;7.61;77.47;148071.94;4985306;28;20348;-58
2023/12/05 09:53:45;;;;;;;3.03;0.90;;;;;;;7.67;78.25;148086.84;4981413;28;20224;-59
2023/12/05 09:56:13;;;;;;;3.97;0.80;;;;;;;7.48;77.86;148042.09;4988039;28;20248;-59
2023/12/05 09:58:42;;;;;;;2.33;0.50;;;;;;;7.45;77.81;148034.63;4986422;28;20697;-58
2023/12/05 10:01:10;;;;;;;2.07;0.60;;;;;;;7.41;77.15;148023.47;4989387;28;20225;-60
2023/12/05 10:03:39;;;;;;;2.33;0.40;;;;;;;7.41;77.44;148024.75;4986258;28;20217;-59
2023/12/05 10:06:07;;;;;;;1.30;0.43;;;;;;;7.49;76.25;148043.38;4987989;28;20233;-59
2023/12/05 10:08:34;;;;;;;5.90;0.90;;;;;;;7.42;80.94;148027.19;4988247;28;20271;-59
2023/12/05 10:11:05;;;;;;;1.37;0.60;;;;;;;7.55;78.91;148058.28;4985484;28;20245;-59
2023/12/05 10:13:32;;;;;;;4.00;0.70;;;;;;;7.39;77.88;148021.00;4987420;28;20225;-55
2023/12/05 10:16:01;;;;;;;2.23;1.10;;;;;;;7.26;78.42;147988.69;4958460;28;20772;-54
2023/12/05 10:18:28;;;;;;;2.50;0.70;;;;;;;7.42;77.00;148027.19;4988988;28;20216;-54
2023/12/05 10:20:55;;;;;;;2.33;0.73;;;;;;;7.39;76.54;148019.78;4986168;28;20220;-54
2023/12/05 10:23:22;;;;;;;1.90;1.40;;;;;;;7.36;76.87;148013.53;4989020;28;20222;-53
2023/12/05 10:25:48;;;;;;;3.67;1.07;;;;;;;7.41;77.87;148024.75;4969093;28;20232;-53
2023/12/05 10:28:16;;;;;;;7.00;1.17;;;;;;;7.17;77.54;147967.56;4988148;28;20812;-54
2023/12/05 10:30:43;;;;;;;3.40;1.10;;;;;;;7.22;78.27;147980.00;4985988;28;20232;-54
2023/12/05 10:33:13;;;;;;;3.10;1.50;;;;;;;7.21;79.00;147977.53;4989736;28;20252;-55
2023/12/05 10:35:41;;;;;;;0.97;0.60;;;;;;;7.32;77.58;148002.38;4986062;28;20708;-53
2023/12/05 10:38:08;;;;;;;2.33;0.60;;;;;;;7.57;76.63;148061.97;4988890;28;20225;-55
2023/12/05 10:40:50;;;;;;;1.07;0.40;;;;;;;7.57;76.08;148063.25;4988905;28;20636;-53
2023/12/05 10:43:20;;;;;;;1.70;0.50;;;;;;;7.42;75.67;148025.97;4985804;28;20308;-55
2023/12/05 10:45:47;;;;;;;2.63;1.00;;;;;;;7.36;75.09;148013.53;4985514;28;20712;-53
2023/12/05 10:48:15;;;;;;;4.57;2.00;;;;;;;7.38;76.88;148018.50;4987166;28;20241;-53
2023/12/05 10:50:43;;;;;;;0.97;0.30;;;;;;;7.24;76.28;147983.72;4986090;28;20236;-53
2023/12/05 10:53:10;;;;;;;6.77;3.47;;;;;;;7.08;76.88;147945.22;4987689;28;20226;-53
2023/12/05 10:55:37;;;;;;;4.00;1.60;;;;;;;7.07;77.72;147942.72;4985221;28;20225;-55
2023/12/05 10:58:05;;;;;;;1.90;1.07;;;;;;;7.03;77.22;147932.78;4987786;28;20229;-53
2023/12/05 11:00:34;;;;;;;4.43;2.03;;;;;;;7.04;78.07;147936.47;4987783;28;20826;-55
2023/12/05 11:03:03;;;;;;;4.27;2.20;;;;;;;7.21;77.12;147977.53;4985264;28;20240;-56
2023/12/05 11:05:31;;;;;;;1.53;0.70;;;;;;;7.26;76.81;147987.47;4988152;28;20217;-56
2023/12/05 11:07:57;;;;;;;2.53;0.67;;;;;;;7.41;76.62;148024.75;4983257;28;20670;-53
2023/12/05 11:10:24;;;;;;;2.53;1.50;;;;;;;7.59;76.49;148066.97;4987450;28;20253;-54
2023/12/05 11:12:52;;;;;;;1.53;0.40;;;;;;;7.71;74.80;148096.78;4984872;28;20894;-55
2023/12/05 11:15:23;;;;;;;2.03;0.80;;;;;;;7.86;73.38;148131.59;4979128;28;20213;-53
2023/12/05 11:17:54;;;;;;;5.80;3.33;;;;;;;7.87;73.32;148134.09;4987656;28;20231;-56
2023/12/05 11:20:31;;;;;;;2.53;0.90;;;;;;;8.11;73.79;148193.78;4987107;28;20313;-54
2023/12/05 11:23:20;;;;;;;1.30;1.00;;;;;;;7.88;73.76;148136.56;4984656;28;20241;-55
2023/12/05 11:25:58;;;;;;;1.37;1.17;;;;;;;7.92;73.13;148146.53;4985900;28;20341;-53
2023/12/05 11:28:38;;;;;;;1.47;0.90;;;;;;;7.87;74.02;148134.09;4988370;28;20224;-53
2023/12/05 11:31:15;;;;;;;1.63;0.73;;;;;;;7.86;73.14;148132.88;4985898;28;20418;-55
2023/12/05 11:34:13;;;;;;;1.63;0.77;;;;;;;7.78;73.74;148114.19;4983643;28;20222;-53
2023/12/05 11:36:52;;;;;;;2.00;1.50;;;;;;;7.83;73.60;148126.63;4983697;28;20225;-52